sensor_id;sensor_type;location;lat;lon;timestamp;pressure;altitude;pressure_sealevel;temperature;humidity
62725;BME280;49026;52.600;4.694;2023-04-28T00:01:34;101462.53;;;8.16;64.94
62725;BME280;49026;52.600;4.694;2023-04-28T00:03:59;101466.94;;;8.14;68.12
62725;BME280;49026;52.600;4.694;2023-04-28T00:06:25;101462.59;;;8.13;67.14
62725;BME280;49026;52.600;4.694;2023-04-28T00:08:53;101451.22;;;8.16;67.01
62725;BME280;49026;52.600;4.694;2023-04-28T00:11:20;101438.16;;;8.14;64.32
62725;BME280;49026;52.600;4.694;2023-04-28T00:13:45;101459.03;;;8.18;64.97
62725;BME280;49026;52.600;4.694;2023-04-28T00:16:11;101444.22;;;8.16;63.51
62725;BME280;49026;52.600;4.694;2023-04-28T00:18:36;101442.44;;;8.19;63.62
62725;BME280;49026;52.600;4.694;2023-04-28T00:21:01;101445.91;;;8.19;64.39
62725;BME280;49026;52.600;4.694;2023-04-28T00:23:29;101441.53;;;8.20;65.65
62725;BME280;49026;52.600;4.694;2023-04-28T00:25:54;101425.81;;;8.20;62.46
62725;BME280;49026;52.600;4.694;2023-04-28T00:28:22;101423.25;;;8.18;62.14
62725;BME280;49026;52.600;4.694;2023-04-28T00:30:47;101420.66;;;8.16;63.20
62725;BME280;49026;52.600;4.694;2023-04-28T00:33:13;101424.16;;;8.17;62.16
62725;BME280;49026;52.600;4.694;2023-04-28T00:35:39;101418.88;;;8.19;61.38
62725;BME280;49026;52.600;4.694;2023-04-28T00:38:04;101414.59;;;8.14;63.92
62725;BME280;49026;52.600;4.694;2023-04-28T00:40:37;101413.72;;;8.15;61.46
62725;BME280;49026;52.600;4.694;2023-04-28T00:43:05;101402.34;;;8.15;64.47
62725;BME280;49026;52.600;4.694;2023-04-28T00:45:33;101407.59;;;8.15;64.75
62725;BME280;49026;52.600;4.694;2023-04-28T00:47:59;101404.97;;;8.15;61.72
62725;BME280;49026;52.600;4.694;2023-04-28T00:50:27;101398.00;;;8.15;64.15
62725;BME280;49026;52.600;4.694;2023-04-28T00:52:53;101398.06;;;8.12;62.52
62725;BME280;49026;52.600;4.694;2023-04-28T00:55:21;101395.47;;;8.11;64.05
62725;BME280;49026;52.600;4.694;2023-04-28T00:57:46;101407.72;;;8.10;62.73
62725;BME280;49026;52.600;4.694;2023-04-28T01:00:15;101394.69;;;8.07;65.03
62725;BME280;49026;52.600;4.694;2023-04-28T01:02:40;101389.41;;;8.09;63.02
62725;BME280;49026;52.600;4.694;2023-04-28T01:05:07;101393.81;;;8.07;63.80
62725;BME280;49026;52.600;4.694;2023-04-28T01:07:33;101392.06;;;8.07;65.73
62725;BME280;49026;52.600;4.694;2023-04-28T01:10:01;101380.78;;;8.05;65.14
62725;BME280;49026;52.600;4.694;2023-04-28T01:12:27;101374.66;;;8.05;65.62
62725;BME280;49026;52.600;4.694;2023-04-28T01:14:54;101372.13;;;8.00;65.48
62725;BME280;49026;52.600;4.694;2023-04-28T01:17:20;101373.00;;;8.01;67.04
62725;BME280;49026;52.600;4.694;2023-04-28T01:19:45;101366.97;;;7.97;65.09
62725;BME280;49026;52.600;4.694;2023-04-28T01:22:10;101362.59;;;7.97;67.56
62725;BME280;49026;52.600;4.694;2023-04-28T01:24:39;101352.09;;;7.99;64.16
62725;BME280;49026;52.600;4.694;2023-04-28T01:27:04;101367.03;;;7.94;66.66
62725;BME280;49026;52.600;4.694;2023-04-28T01:29:30;101359.16;;;7.95;66.73
62725;BME280;49026;52.600;4.694;2023-04-28T01:31:55;101364.38;;;7.97;64.22
62725;BME280;49026;52.600;4.694;2023-04-28T01:34:20;101355.59;;;7.98;63.94
62725;BME280;49026;52.600;4.694;2023-04-28T01:36:46;101356.44;;;8.00;63.71
62725;BME280;49026;52.600;4.694;2023-04-28T01:39:11;101345.09;;;8.00;63.72
62725;BME280;49026;52.600;4.694;2023-04-28T01:41:43;101346.84;;;8.01;64.05
62725;BME280;49026;52.600;4.694;2023-04-28T01:44:08;101350.31;;;8.01;65.27
62725;BME280;49026;52.600;4.694;2023-04-28T01:46:35;101350.31;;;8.01;62.84
62725;BME280;49026;52.600;4.694;2023-04-28T01:49:01;101347.69;;;8.01;62.85
62725;BME280;49026;52.600;4.694;2023-04-28T01:51:26;101346.84;;;8.01;62.71
62725;BME280;49026;52.600;4.694;2023-04-28T01:53:51;101343.34;;;8.00;64.78
62725;BME280;49026;52.600;4.694;2023-04-28T01:56:17;101341.63;;;7.99;64.05
62725;BME280;49026;52.600;4.694;2023-04-28T01:58:42;101333.91;;;7.93;65.06
62725;BME280;49026;52.600;4.694;2023-04-28T02:01:07;101332.06;;;7.98;63.07
62725;BME280;49026;52.600;4.694;2023-04-28T02:03:35;101336.38;;;8.01;62.63
62725;BME280;49026;52.600;4.694;2023-04-28T02:06:00;101335.59;;;7.97;65.07
62725;BME280;49026;52.600;4.694;2023-04-28T02:08:26;101329.47;;;7.96;65.87
62725;BME280;49026;52.600;4.694;2023-04-28T02:10:53;101321.56;;;7.98;63.56
62725;BME280;49026;52.600;4.694;2023-04-28T02:13:18;101321.56;;;7.98;64.86
62725;BME280;49026;52.600;4.694;2023-04-28T02:15:44;101312.03;;;7.97;63.74
62725;BME280;49026;52.600;4.694;2023-04-28T02:18:09;101315.56;;;7.94;65.29
62725;BME280;49026;52.600;4.694;2023-04-28T02:20:37;101312.03;;;7.97;63.97
62725;BME280;49026;52.600;4.694;2023-04-28T02:23:02;101306.78;;;7.97;63.29
62725;BME280;49026;52.600;4.694;2023-04-28T02:25:30;101288.53;;;7.94;63.77
62725;BME280;49026;52.600;4.694;2023-04-28T02:27:58;101285.13;;;7.90;66.96
62725;BME280;49026;52.600;4.694;2023-04-28T02:30:23;101283.50;;;7.85;67.14
62725;BME280;49026;52.600;4.694;2023-04-28T02:32:48;101271.31;;;7.84;65.06
62725;BME280;49026;52.600;4.694;2023-04-28T02:35:16;101268.81;;;7.77;66.22
62725;BME280;49026;52.600;4.694;2023-04-28T02:37:41;101266.16;;;7.81;63.77
62725;BME280;49026;52.600;4.694;2023-04-28T02:40:07;101256.63;;;7.76;65.49
62725;BME280;49026;52.600;4.694;2023-04-28T02:42:32;101264.69;;;7.67;67.41
62725;BME280;49026;52.600;4.694;2023-04-28T02:44:57;101259.47;;;7.67;67.90
62725;BME280;49026;52.600;4.694;2023-04-28T02:47:23;101256.84;;;7.67;65.96
62725;BME280;49026;52.600;4.694;2023-04-28T02:49:48;101255.13;;;7.65;66.23
62725;BME280;49026;52.600;4.694;2023-04-28T02:52:13;101249.06;;;7.64;67.23
62725;BME280;49026;52.600;4.694;2023-04-28T02:54:41;101246.47;;;7.63;66.64
62725;BME280;49026;52.600;4.694;2023-04-28T02:57:06;101246.53;;;7.59;67.81
62725;BME280;49026;52.600;4.694;2023-04-28T02:59:32;101233.44;;;7.61;65.65
62725;BME280;49026;52.600;4.694;2023-04-28T03:01:57;101236.25;;;7.52;71.19
62725;BME280;49026;52.600;4.694;2023-04-28T03:04:22;101232.69;;;7.54;67.63
62725;BME280;49026;52.600;4.694;2023-04-28T03:06:48;101221.38;;;7.54;70.92
62725;BME280;49026;52.600;4.694;2023-04-28T03:09:14;101221.44;;;7.51;67.92
62725;BME280;49026;52.600;4.694;2023-04-28T03:11:44;101224.91;;;7.51;70.76
62725;BME280;49026;52.600;4.694;2023-04-28T03:14:09;101218.88;;;7.48;70.69
62725;BME280;49026;52.600;4.694;2023-04-28T03:16:35;101210.03;;;7.53;67.08
62725;BME280;49026;52.600;4.694;2023-04-28T03:19:00;101223.25;;;7.49;70.47
62725;BME280;49026;52.600;4.694;2023-04-28T03:21:28;101207.56;;;7.49;69.03
62725;BME280;49026;52.600;4.694;2023-04-28T03:23:54;101202.28;;;7.50;69.87
62725;BME280;49026;52.600;4.694;2023-04-28T03:26:21;101199.69;;;7.50;67.94
62725;BME280;49026;52.600;4.694;2023-04-28T03:28:46;101197.09;;;7.49;70.46
62725;BME280;49026;52.600;4.694;2023-04-28T03:31:14;101184.84;;;7.51;68.94
62725;BME280;49026;52.600;4.694;2023-04-28T03:33:39;101182.19;;;7.52;68.86
62725;BME280;49026;52.600;4.694;2023-04-28T03:36:08;101181.38;;;7.50;67.81
62725;BME280;49026;52.600;4.694;2023-04-28T03:38:36;101178.72;;;7.52;70.71
62725;BME280;49026;52.600;4.694;2023-04-28T03:41:01;101177.03;;;7.49;70.08
62725;BME280;49026;52.600;4.694;2023-04-28T03:43:26;101175.31;;;7.47;68.84
62725;BME280;49026;52.600;4.694;2023-04-28T03:45:51;101166.59;;;7.48;67.45
62725;BME280;49026;52.600;4.694;2023-04-28T03:48:17;101161.34;;;7.49;66.82
62725;BME280;49026;52.600;4.694;2023-04-28T03:50:42;101163.16;;;7.46;68.23
62725;BME280;49026;52.600;4.694;2023-04-28T03:53:11;101153.59;;;7.45;67.31
62725;BME280;49026;52.600;4.694;2023-04-28T03:55:37;101146.63;;;7.45;68.01
62725;BME280;49026;52.600;4.694;2023-04-28T03:58:04;101149.25;;;7.45;68.97
62725;BME280;49026;52.600;4.694;2023-04-28T04:00:30;101146.66;;;7.44;69.73
62725;BME280;49026;52.600;4.694;2023-04-28T04:02:55;101142.34;;;7.41;69.33
62725;BME280;49026;52.600;4.694;2023-04-28T04:05:20;101141.50;;;7.40;69.36
62725;BME280;49026;52.600;4.694;2023-04-28T04:07:46;101139.69;;;7.42;70.19
62725;BME280;49026;52.600;4.694;2023-04-28T04:10:11;101131.03;;;7.40;70.95
62725;BME280;49026;52.600;4.694;2023-04-28T04:12:37;101129.22;;;7.42;71.27
62725;BME280;49026;52.600;4.694;2023-04-28T04:15:02;101120.56;;;7.40;68.85
62725;BME280;49026;52.600;4.694;2023-04-28T04:17:30;101126.66;;;7.41;72.50
62725;BME280;49026;52.600;4.694;2023-04-28T04:19:55;101128.38;;;7.42;72.00
62725;BME280;49026;52.600;4.694;2023-04-28T04:22:23;101112.63;;;7.45;69.13
62725;BME280;49026;52.600;4.694;2023-04-28T04:24:48;101118.66;;;7.49;71.58
62725;BME280;49026;52.600;4.694;2023-04-28T04:27:14;101124.69;;;7.51;66.74
62725;BME280;49026;52.600;4.694;2023-04-28T04:29:39;101122.00;;;7.54;66.83
62725;BME280;49026;52.600;4.694;2023-04-28T04:32:08;101122.84;;;7.56;68.11
62725;BME280;49026;52.600;4.694;2023-04-28T04:34:33;101122.03;;;7.52;71.84
62725;BME280;49026;52.600;4.694;2023-04-28T04:37:00;101118.44;;;7.56;67.76
62725;BME280;49026;52.600;4.694;2023-04-28T04:39:28;101123.69;;;7.56;71.33
62725;BME280;49026;52.600;4.694;2023-04-28T04:41:54;101124.59;;;7.55;69.52
62725;BME280;49026;52.600;4.694;2023-04-28T04:44:19;101125.44;;;7.56;68.13
62725;BME280;49026;52.600;4.694;2023-04-28T04:46:48;101124.53;;;7.58;69.97
62725;BME280;49026;52.600;4.694;2023-04-28T04:49:13;101112.38;;;7.56;71.74
62725;BME280;49026;52.600;4.694;2023-04-28T04:51:38;101110.66;;;7.53;73.00
62725;BME280;49026;52.600;4.694;2023-04-28T04:54:04;101109.75;;;7.56;72.51
62725;BME280;49026;52.600;4.694;2023-04-28T04:56:31;101106.34;;;7.52;73.49
62725;BME280;49026;52.600;4.694;2023-04-28T04:58:59;101099.34;;;7.53;73.43
62725;BME280;49026;52.600;4.694;2023-04-28T05:01:24;101094.94;;;7.55;72.66
62725;BME280;49026;52.600;4.694;2023-04-28T05:03:50;101091.41;;;7.57;72.28
62725;BME280;49026;52.600;4.694;2023-04-28T05:06:16;101084.41;;;7.58;73.36
62725;BME280;49026;52.600;4.694;2023-04-28T05:08:41;101072.25;;;7.57;70.79
62725;BME280;49026;52.600;4.694;2023-04-28T05:11:06;101058.31;;;7.56;74.59
62725;BME280;49026;52.600;4.694;2023-04-28T05:13:31;101060.97;;;7.53;73.07
62725;BME280;49026;52.600;4.694;2023-04-28T05:15:57;101062.75;;;7.53;70.76
62725;BME280;49026;52.600;4.694;2023-04-28T05:18:23;101081.03;;;7.54;70.77
62725;BME280;49026;52.600;4.694;2023-04-28T05:20:48;101087.94;;;7.57;71.44
62725;BME280;49026;52.600;4.694;2023-04-28T05:23:13;101082.75;;;7.55;69.47
62725;BME280;49026;52.600;4.694;2023-04-28T05:25:39;101081.78;;;7.59;71.16
62725;BME280;49026;52.600;4.694;2023-04-28T05:28:08;101089.59;;;7.61;69.29
62725;BME280;49026;52.600;4.694;2023-04-28T05:30:33;101099.94;;;7.66;68.33
62725;BME280;49026;52.600;4.694;2023-04-28T05:32:59;101103.34;;;7.69;69.39
62725;BME280;49026;52.600;4.694;2023-04-28T05:35:25;101111.19;;;7.69;69.08
62725;BME280;49026;52.600;4.694;2023-04-28T05:37:50;101109.38;;;7.71;69.53
62725;BME280;49026;52.600;4.694;2023-04-28T05:40:18;101117.16;;;7.74;67.34
62725;BME280;49026;52.600;4.694;2023-04-28T05:42:43;101110.09;;;7.78;66.35
62725;BME280;49026;52.600;4.694;2023-04-28T05:45:11;101113.53;;;7.80;66.33
62725;BME280;49026;52.600;4.694;2023-04-28T05:47:36;101118.72;;;7.82;67.57
62725;BME280;49026;52.600;4.694;2023-04-28T05:50:02;101115.28;;;7.79;69.14
62725;BME280;49026;52.600;4.694;2023-04-28T05:52:35;101124.00;;;7.80;70.20
62725;BME280;49026;52.600;4.694;2023-04-28T05:55:02;101115.28;;;7.79;69.65
62725;BME280;49026;52.600;4.694;2023-04-28T05:57:27;101116.09;;;7.82;68.86
62725;BME280;49026;52.600;4.694;2023-04-28T05:59:53;101111.75;;;7.82;70.68
62725;BME280;49026;52.600;4.694;2023-04-28T06:02:20;101107.38;;;7.83;69.65
62725;BME280;49026;52.600;4.694;2023-04-28T06:04:46;101107.31;;;7.86;70.19
62725;BME280;49026;52.600;4.694;2023-04-28T06:07:11;101108.94;;;7.90;69.02
62725;BME280;49026;52.600;4.694;2023-04-28T06:09:36;101111.44;;;7.94;68.95
62725;BME280;49026;52.600;4.694;2023-04-28T06:12:02;101119.13;;;8.02;67.28
62725;BME280;49026;52.600;4.694;2023-04-28T06:14:28;101109.34;;;8.09;67.77
62725;BME280;49026;52.600;4.694;2023-04-28T06:16:53;101104.81;;;8.15;68.08
62725;BME280;49026;52.600;4.694;2023-04-28T06:19:18;101102.88;;;8.24;66.59
62725;BME280;49026;52.600;4.694;2023-04-28T06:21:44;101106.16;;;8.32;67.12
62725;BME280;49026;52.600;4.694;2023-04-28T06:24:10;101101.59;;;8.39;67.64
62725;BME280;49026;52.600;4.694;2023-04-28T06:26:38;101099.56;;;8.50;70.31
62725;BME280;49026;52.600;4.694;2023-04-28T06:29:03;101092.19;;;8.64;68.42
62725;BME280;49026;52.600;4.694;2023-04-28T06:31:31;101078.69;;;8.78;66.75
62725;BME280;49026;52.600;4.694;2023-04-28T06:33:56;101085.38;;;8.88;67.43
62725;BME280;49026;52.600;4.694;2023-04-28T06:36:21;101090.63;;;8.88;66.60
62725;BME280;49026;52.600;4.694;2023-04-28T06:38:47;101081.06;;;8.87;67.62
62725;BME280;49026;52.600;4.694;2023-04-28T06:41:12;101073.00;;;8.94;68.47
62725;BME280;49026;52.600;4.694;2023-04-28T06:43:37;101071.00;;;9.02;67.02
62725;BME280;49026;52.600;4.694;2023-04-28T06:46:03;101061.19;;;9.08;67.55
62725;BME280;49026;52.600;4.694;2023-04-28T06:48:28;101055.00;;;9.11;66.25
62725;BME280;49026;52.600;4.694;2023-04-28T06:50:53;101049.53;;;9.19;66.46
62725;BME280;49026;52.600;4.694;2023-04-28T06:53:21;101050.09;;;9.28;66.17
62725;BME280;49026;52.600;4.694;2023-04-28T06:55:49;101038.22;;;9.45;67.37
62725;BME280;49026;52.600;4.694;2023-04-28T06:58:14;101041.53;;;9.50;65.30
62725;BME280;49026;52.600;4.694;2023-04-28T07:00:40;101045.66;;;9.59;65.53
62725;BME280;49026;52.600;4.694;2023-04-28T07:03:05;101045.22;;;9.71;65.61
62725;BME280;49026;52.600;4.694;2023-04-28T07:05:31;101046.78;;;9.77;65.90
62725;BME280;49026;52.600;4.694;2023-04-28T07:07:58;101048.50;;;9.78;65.87
62725;BME280;49026;52.600;4.694;2023-04-28T07:10:23;101046.09;;;9.72;65.80
62725;BME280;49026;52.600;4.694;2023-04-28T07:12:49;101040.09;;;9.68;65.69
62725;BME280;49026;52.600;4.694;2023-04-28T07:15:16;101039.13;;;9.71;65.11
62725;BME280;49026;52.600;4.694;2023-04-28T07:17:45;101027.06;;;9.65;67.39
62725;BME280;49026;52.600;4.694;2023-04-28T07:20:10;101029.91;;;9.59;67.61
62725;BME280;49026;52.600;4.694;2023-04-28T07:22:36;101040.44;;;9.57;66.85
62725;BME280;49026;52.600;4.694;2023-04-28T07:25:04;101031.66;;;9.58;66.77
62725;BME280;49026;52.600;4.694;2023-04-28T07:27:30;101033.66;;;9.50;67.94
62725;BME280;49026;52.600;4.694;2023-04-28T07:29:56;101028.38;;;9.52;66.73
62725;BME280;49026;52.600;4.694;2023-04-28T07:32:21;101025.59;;;9.56;66.51
62725;BME280;49026;52.600;4.694;2023-04-28T07:34:51;101022.09;;;9.57;66.62
62725;BME280;49026;52.600;4.694;2023-04-28T07:37:17;101032.59;;;9.57;67.53
62725;BME280;49026;52.600;4.694;2023-04-28T07:39:42;101021.63;;;9.44;67.94
62725;BME280;49026;52.600;4.694;2023-04-28T07:42:09;101023.63;;;9.36;69.10
62725;BME280;49026;52.600;4.694;2023-04-28T07:44:34;101026.22;;;9.38;68.47
62725;BME280;49026;52.600;4.694;2023-04-28T07:46:59;101017.19;;;9.46;68.58
62725;BME280;49026;52.600;4.694;2023-04-28T07:49:27;101013.66;;;9.48;67.84
62725;BME280;49026;52.600;4.694;2023-04-28T07:51:53;101014.47;;;9.50;68.08
62725;BME280;49026;52.600;4.694;2023-04-28T07:54:19;101016.06;;;9.54;67.44
62725;BME280;49026;52.600;4.694;2023-04-28T07:56:47;101011.00;;;9.49;68.57
62725;BME280;49026;52.600;4.694;2023-04-28T07:59:13;101022.09;;;9.57;67.23
62725;BME280;49026;52.600;4.694;2023-04-28T08:01:38;101026.97;;;9.68;69.93
62725;BME280;49026;52.600;4.694;2023-04-28T08:04:04;101024.59;;;9.60;67.95
62725;BME280;49026;52.600;4.694;2023-04-28T08:06:32;101009.50;;;9.67;68.71
62725;BME280;49026;52.600;4.694;2023-04-28T08:08:58;101021.75;;;9.67;68.36
62725;BME280;49026;52.600;4.694;2023-04-28T08:11:24;101019.41;;;9.59;69.20
62725;BME280;49026;52.600;4.694;2023-04-28T08:13:51;101020.06;;;9.66;67.95
62725;BME280;49026;52.600;4.694;2023-04-28T08:16:17;101021.41;;;9.77;68.02
62725;BME280;49026;52.600;4.694;2023-04-28T08:18:46;101022.97;;;9.83;67.77
62725;BME280;49026;52.600;4.694;2023-04-28T08:21:12;101017.81;;;9.80;68.34
62725;BME280;49026;52.600;4.694;2023-04-28T08:23:37;101014.16;;;9.59;74.46
62725;BME280;49026;52.600;4.694;2023-04-28T08:26:05;101018.75;;;9.52;72.28
62725;BME280;49026;52.600;4.694;2023-04-28T08:28:30;101017.94;;;9.50;71.86
62725;BME280;49026;52.600;4.694;2023-04-28T08:30:57;101013.72;;;9.46;75.91
62725;BME280;49026;52.600;4.694;2023-04-28T08:33:22;101010.22;;;9.45;77.08
62725;BME280;49026;52.600;4.694;2023-04-28T08:35:51;101006.44;;;9.54;75.50
62725;BME280;49026;52.600;4.694;2023-04-28T08:38:17;100999.97;;;9.64;79.03
62725;BME280;49026;52.600;4.694;2023-04-28T08:40:42;101004.91;;;9.74;75.60
62725;BME280;49026;52.600;4.694;2023-04-28T08:43:08;101003.84;;;9.79;79.28
62725;BME280;49026;52.600;4.694;2023-04-28T08:45:40;101005.72;;;9.76;77.94
62725;BME280;49026;52.600;4.694;2023-04-28T08:48:13;100997.81;;;9.77;79.00
62725;BME280;49026;52.600;4.694;2023-04-28T08:50:43;100994.91;;;9.85;81.27
62725;BME280;49026;52.600;4.694;2023-04-28T08:53:21;100989.00;;;9.78;79.98
62725;BME280;49026;52.600;4.694;2023-04-28T08:55:49;100991.63;;;9.78;79.18
62725;BME280;49026;52.600;4.694;2023-04-28T08:58:15;100994.19;;;9.80;82.96
62725;BME280;49026;52.600;4.694;2023-04-28T09:00:41;100988.84;;;9.83;81.06
62725;BME280;49026;52.600;4.694;2023-04-28T09:03:07;101000.25;;;9.82;84.82
62725;BME280;49026;52.600;4.694;2023-04-28T09:05:39;100991.25;;;9.64;81.85
62725;BME280;49026;52.600;4.694;2023-04-28T09:08:04;100994.31;;;9.50;82.51
62725;BME280;49026;52.600;4.694;2023-04-28T09:10:29;100999.19;;;9.36;82.45
62725;BME280;49026;52.600;4.694;2023-04-28T09:12:55;101003.81;;;9.27;87.94
62725;BME280;49026;52.600;4.694;2023-04-28T09:15:29;100999.78;;;9.17;87.16
62725;BME280;49026;52.600;4.694;2023-04-28T09:17:55;100994.63;;;9.14;85.08
62725;BME280;49026;52.600;4.694;2023-04-28T09:20:25;100996.28;;;9.17;84.13
62725;BME280;49026;52.600;4.694;2023-04-28T09:22:52;100996.28;;;9.17;89.54
62725;BME280;49026;52.600;4.694;2023-04-28T09:25:19;100991.19;;;9.12;88.62
62725;BME280;49026;52.600;4.694;2023-04-28T09:27:46;100988.03;;;9.29;89.13
62725;BME280;49026;52.600;4.694;2023-04-28T09:30:15;100985.00;;;9.41;91.28
62725;BME280;49026;52.600;4.694;2023-04-28T09:32:40;100990.16;;;9.44;90.80
62725;BME280;49026;52.600;4.694;2023-04-28T09:35:06;100989.06;;;9.50;89.65
62725;BME280;49026;52.600;4.694;2023-04-28T09:37:33;100986.97;;;9.61;88.74
62725;BME280;49026;52.600;4.694;2023-04-28T09:40:08;100979.69;;;9.70;88.34
62725;BME280;49026;52.600;4.694;2023-04-28T09:42:43;100984.41;;;9.85;88.42
62725;BME280;49026;52.600;4.694;2023-04-28T09:45:12;100984.94;;;9.95;87.48
62725;BME280;49026;52.600;4.694;2023-04-28T09:47:43;100974.75;;;10.11;87.48
62725;BME280;49026;52.600;4.694;2023-04-28T09:50:12;100977.72;;;10.25;88.29
62725;BME280;49026;52.600;4.694;2023-04-28T09:52:52;100980.91;;;10.35;84.95
62725;BME280;49026;52.600;4.694;2023-04-28T09:55:20;100966.56;;;10.44;87.95
62725;BME280;49026;52.600;4.694;2023-04-28T09:57:48;100970.91;;;10.45;87.85
62725;BME280;49026;52.600;4.694;2023-04-28T10:00:16;100975.50;;;10.40;86.35
62725;BME280;49026;52.600;4.694;2023-04-28T10:02:45;100973.59;;;10.43;86.98
62725;BME280;49026;52.600;4.694;2023-04-28T10:05:10;100969.75;;;10.52;84.90
62725;BME280;49026;52.600;4.694;2023-04-28T10:07:37;100966.75;;;10.63;84.12
62725;BME280;49026;52.600;4.694;2023-04-28T10:10:03;100963.69;;;10.73;82.80
62725;BME280;49026;52.600;4.694;2023-04-28T10:12:29;100967.09;;;10.75;83.09
62725;BME280;49026;52.600;4.694;2023-04-28T10:14:57;100971.47;;;10.77;86.23
62725;BME280;49026;52.600;4.694;2023-04-28T10:17:22;100969.44;;;10.83;83.66
62725;BME280;49026;52.600;4.694;2023-04-28T10:19:53;100972.56;;;10.93;82.38
62725;BME280;49026;52.600;4.694;2023-04-28T10:25:32;100973.47;;;10.92;83.09
62725;BME280;49026;52.600;4.694;2023-04-28T10:27:59;100968.28;;;10.90;82.25
62725;BME280;49026;52.600;4.694;2023-04-28T10:30:31;100968.34;;;10.89;82.70
62725;BME280;49026;52.600;4.694;2023-04-28T10:35:43;100967.75;;;11.04;81.18
62725;BME280;49026;52.600;4.694;2023-04-28T10:38:13;100970.00;;;11.13;80.85
62725;BME280;49026;52.600;4.694;2023-04-28T10:40:41;100962.00;;;11.17;80.29
62725;BME280;49026;52.600;4.694;2023-04-28T10:43:08;100965.16;;;11.25;77.40
62725;BME280;49026;52.600;4.694;2023-04-28T10:48:18;100957.75;;;11.35;77.11
62725;BME280;49026;52.600;4.694;2023-04-28T10:56:09;100960.72;;;11.47;76.65
62725;BME280;49026;52.600;4.694;2023-04-28T10:58:36;100960.47;;;11.54;75.84
62725;BME280;49026;52.600;4.694;2023-04-28T11:06:27;100951.53;;;11.58;72.90
62725;BME280;49026;52.600;4.694;2023-04-28T11:08:53;100956.44;;;11.65;72.52
62725;BME280;49026;52.600;4.694;2023-04-28T11:11:24;100945.59;;;11.73;71.68
62725;BME280;49026;52.600;4.694;2023-04-28T11:13:51;100947.03;;;11.80;72.08
62725;BME280;49026;52.600;4.694;2023-04-28T11:16:23;100944.16;;;11.86;71.69
62725;BME280;49026;52.600;4.694;2023-04-28T11:21:22;100941.38;;;11.90;71.52
62725;BME280;49026;52.600;4.694;2023-04-28T11:23:48;100939.44;;;11.95;71.00
62725;BME280;49026;52.600;4.694;2023-04-28T11:26:14;100932.19;;;12.00;70.54
62725;BME280;49026;52.600;4.694;2023-04-28T11:28:47;100934.31;;;12.11;70.00
62725;BME280;49026;52.600;4.694;2023-04-28T11:31:13;100942.00;;;12.15;70.56
62725;BME280;49026;52.600;4.694;2023-04-28T11:33:44;100936.47;;;12.21;69.96
62725;BME280;49026;52.600;4.694;2023-04-28T11:36:24;100938.16;;;12.22;69.94
62725;BME280;49026;52.600;4.694;2023-04-28T11:38:50;100933.78;;;12.23;69.84
62725;BME280;49026;52.600;4.694;2023-04-28T11:41:15;100937.31;;;12.22;70.60
62725;BME280;49026;52.600;4.694;2023-04-28T11:43:43;100933.28;;;12.15;70.02
62725;BME280;49026;52.600;4.694;2023-04-28T11:46:08;100939.00;;;12.04;69.90
62725;BME280;49026;52.600;4.694;2023-04-28T11:48:34;100936.38;;;12.04;70.12
62725;BME280;49026;52.600;4.694;2023-04-28T11:51:00;100938.59;;;12.13;70.12
62725;BME280;49026;52.600;4.694;2023-04-28T11:53:44;100935.34;;;12.27;70.19
62725;BME280;49026;52.600;4.694;2023-04-28T11:56:09;100935.91;;;12.34;69.99
62725;BME280;49026;52.600;4.694;2023-04-28T11:58:42;100942.25;;;12.30;70.50
62725;BME280;49026;52.600;4.694;2023-04-28T12:01:09;100946.88;;;12.25;70.98
62725;BME280;49026;52.600;4.694;2023-04-28T12:03:49;100932.91;;;12.22;71.01
62725;BME280;49026;52.600;4.694;2023-04-28T12:06:18;100937.41;;;12.20;71.25
62725;BME280;49026;52.600;4.694;2023-04-28T12:08:43;100938.63;;;12.32;70.87
62725;BME280;49026;52.600;4.694;2023-04-28T12:11:10;100944.53;;;12.37;71.36
62725;BME280;49026;52.600;4.694;2023-04-28T12:13:41;100943.16;;;12.29;70.98
62725;BME280;49026;52.600;4.694;2023-04-28T12:16:07;100934.69;;;12.22;71.68
62725;BME280;49026;52.600;4.694;2023-04-28T12:18:36;100938.41;;;12.18;72.17
62725;BME280;49026;52.600;4.694;2023-04-28T12:21:02;100943.56;;;12.19;72.30
62725;BME280;49026;52.600;4.694;2023-04-28T12:23:31;100947.78;;;12.23;72.17
62725;BME280;49026;52.600;4.694;2023-04-28T12:26:00;100943.31;;;12.26;71.69
62725;BME280;49026;52.600;4.694;2023-04-28T12:28:36;100951.06;;;12.29;71.74
62725;BME280;49026;52.600;4.694;2023-04-28T12:31:07;100955.69;;;12.23;72.17
62725;BME280;49026;52.600;4.694;2023-04-28T12:33:36;100948.00;;;12.19;72.13
62725;BME280;49026;52.600;4.694;2023-04-28T12:36:02;100962.50;;;12.09;72.23
62725;BME280;49026;52.600;4.694;2023-04-28T12:38:28;100958.50;;;12.00;72.57
62725;BME280;49026;52.600;4.694;2023-04-28T12:40:54;100943.88;;;11.93;73.01
62725;BME280;49026;52.600;4.694;2023-04-28T12:43:19;100959.06;;;11.86;73.71
62725;BME280;49026;52.600;4.694;2023-04-28T12:45:48;100969.59;;;11.86;73.99
62725;BME280;49026;52.600;4.694;2023-04-28T12:48:13;100972.16;;;11.87;73.79
62725;BME280;49026;52.600;4.694;2023-04-28T12:50:41;100978.38;;;11.86;73.98
62725;BME280;49026;52.600;4.694;2023-04-28T12:53:08;100972.44;;;11.81;74.28
62725;BME280;49026;52.600;4.694;2023-04-28T12:55:33;100967.97;;;11.83;73.83
62725;BME280;49026;52.600;4.694;2023-04-28T12:58:01;100967.72;;;11.90;73.62
62725;BME280;49026;52.600;4.694;2023-04-28T13:00:26;100975.28;;;11.97;73.36
62725;BME280;49026;52.600;4.694;2023-04-28T13:02:52;100973.38;;;12.01;73.56
62725;BME280;49026;52.600;4.694;2023-04-28T13:05:17;100966.28;;;12.03;74.91
62725;BME280;49026;52.600;4.694;2023-04-28T13:07:43;100978.56;;;12.02;74.41
62725;BME280;49026;52.600;4.694;2023-04-28T13:10:09;100970.47;;;12.07;74.46
62725;BME280;49026;52.600;4.694;2023-04-28T13:12:36;100971.13;;;12.12;74.80
62725;BME280;49026;52.600;4.694;2023-04-28T13:15:04;100973.63;;;12.15;74.48
62725;BME280;49026;52.600;4.694;2023-04-28T13:17:30;100975.28;;;12.18;74.37